SWA3799 KLAS-KLAX
Flight info
| Callsign | SWA3799 |
|---|---|
| Flight time | 0h 40m |
| Altitude | 30000 |
| Route | RADYR2 BLAQQ SHTNR ANJLL4 |
| Aircraft | B737/M-SADE2E3GIJ4RWZ/LB1D1 |
Departure
| Time | 2026-05-07 17:15 |
|---|---|
| Airport | Harry Reid International Airport (KLAS) |
Arrival
| Time | 2026-05-07 17:55 |
|---|---|
| Airport | Los Angeles International Airport (KLAX) |
| Time | Latitude | Longitude | Altitude | Speed | Heading |
|---|---|---|---|---|---|
| 2026-05-07 16:45 | 36.08317 | -115.15054 | 2120 ft | 0 kts | 247° |
| 2026-05-07 17:03 | 36.08320 | -115.15047 | 2120 ft | 2 kts | 250° |
| 2026-05-07 17:03 | 36.08322 | -115.15028 | 2120 ft | 2 kts | 275° |
| 2026-05-07 17:03 | 36.08318 | -115.15011 | 2119 ft | 2 kts | 295° |
| 2026-05-07 17:04 | 36.08310 | -115.14995 | 2119 ft | 2 kts | 315° |
| 2026-05-07 17:04 | 36.08298 | -115.14983 | 2119 ft | 2 kts | 326° |
| 2026-05-07 17:04 | 36.08286 | -115.14973 | 2119 ft | 2 kts | 322° |
| 2026-05-07 17:04 | 36.08275 | -115.14961 | 2119 ft | 2 kts | 325° |
| 2026-05-07 17:05 | 36.08261 | -115.14954 | 2119 ft | 2 kts | 353° |
| 2026-05-07 17:05 | 36.08246 | -115.14955 | 2119 ft | 2 kts | 16° |
| 2026-05-07 17:05 | 36.08232 | -115.14963 | 2119 ft | 2 kts | 33° |
| 2026-05-07 17:05 | 36.08220 | -115.14975 | 2119 ft | 2 kts | 47° |
| 2026-05-07 17:06 | 36.08210 | -115.14988 | 2120 ft | 2 kts | 44° |
| 2026-05-07 17:06 | 36.08199 | -115.15001 | 2120 ft | 2 kts | 46° |
| 2026-05-07 17:06 | 36.08192 | -115.15009 | 2120 ft | 1 kts | 45° |
| 2026-05-07 17:06 | 36.08180 | -115.15020 | 2121 ft | 2 kts | 14° |
| 2026-05-07 17:07 | 36.08170 | -115.15022 | 2121 ft | 0 kts | 355° |
| 2026-05-07 17:07 | 36.08163 | -115.15020 | 2121 ft | 0 kts | 351° |
| 2026-05-07 17:09 | 36.08168 | -115.15030 | 2122 ft | 4 kts | 259° |
| 2026-05-07 17:09 | 36.08141 | -115.15074 | 2124 ft | 7 kts | 226° |
| 2026-05-07 17:10 | 36.08095 | -115.15111 | 2126 ft | 9 kts | 191° |
| 2026-05-07 17:10 | 36.08012 | -115.15111 | 2127 ft | 13 kts | 178° |
| 2026-05-07 17:10 | 36.07919 | -115.15110 | 2128 ft | 13 kts | 180° |
| 2026-05-07 17:10 | 36.07822 | -115.15082 | 2128 ft | 17 kts | 135° |
| 2026-05-07 17:11 | 36.07791 | -115.14906 | 2121 ft | 25 kts | 95° |
| 2026-05-07 17:11 | 36.07775 | -115.14681 | 2115 ft | 26 kts | 96° |
| 2026-05-07 17:11 | 36.07761 | -115.14450 | 2107 ft | 25 kts | 94° |
| 2026-05-07 17:11 | 36.07751 | -115.14220 | 2099 ft | 28 kts | 88° |
| 2026-05-07 17:12 | 36.07753 | -115.13966 | 2092 ft | 30 kts | 90° |
| 2026-05-07 17:12 | 36.07753 | -115.13695 | 2085 ft | 32 kts | 90° |
| 2026-05-07 17:12 | 36.07753 | -115.13437 | 2077 ft | 28 kts | 90° |
| 2026-05-07 17:12 | 36.07753 | -115.13197 | 2072 ft | 28 kts | 90° |
| 2026-05-07 17:13 | 36.07753 | -115.12956 | 2067 ft | 28 kts | 90° |
| 2026-05-07 17:13 | 36.07753 | -115.12705 | 2061 ft | 30 kts | 90° |
| 2026-05-07 17:13 | 36.07754 | -115.12440 | 2059 ft | 31 kts | 90° |
| 2026-05-07 17:13 | 36.07755 | -115.12190 | 2056 ft | 18 kts | 92° |
| 2026-05-07 17:14 | 36.07666 | -115.12131 | 2056 ft | 17 kts | 203° |
| 2026-05-07 17:14 | 36.07643 | -115.12414 | 2059 ft | 63 kts | 270° |
| 2026-05-07 17:14 | 36.07642 | -115.13203 | 2073 ft | 119 kts | 270° |
| 2026-05-07 17:14 | 36.07641 | -115.14423 | 2110 ft | 162 kts | 270° |
| 2026-05-07 17:15 | 36.07648 | -115.15809 | 2575 ft | 163 kts | 270° |
| 2026-05-07 17:15 | 36.07656 | -115.17232 | 3058 ft | 168 kts | 271° |
| 2026-05-07 17:15 | 36.07650 | -115.18679 | 3466 ft | 178 kts | 270° |
| 2026-05-07 17:15 | 36.07639 | -115.20263 | 3820 ft | 192 kts | 270° |
| 2026-05-07 17:16 | 36.07486 | -115.21966 | 4190 ft | 206 kts | 261° |
| 2026-05-07 17:16 | 36.07184 | -115.23769 | 4601 ft | 222 kts | 255° |
| 2026-05-07 17:16 | 36.06519 | -115.25480 | 5224 ft | 227 kts | 231° |
| 2026-05-07 17:16 | 36.05254 | -115.26668 | 5679 ft | 241 kts | 205° |
| 2026-05-07 17:17 | 36.03633 | -115.27433 | 6082 ft | 257 kts | 200° |
| 2026-05-07 17:17 | 36.01881 | -115.28196 | 6482 ft | 274 kts | 200° |
| 2026-05-07 17:17 | 36.00049 | -115.28984 | 6941 ft | 287 kts | 200° |
| 2026-05-07 17:17 | 35.98084 | -115.29719 | 7722 ft | 296 kts | 193° |
| 2026-05-07 17:18 | 35.96105 | -115.30202 | 8667 ft | 296 kts | 190° |
| 2026-05-07 17:18 | 35.94058 | -115.30653 | 9506 ft | 302 kts | 190° |
| 2026-05-07 17:18 | 35.91998 | -115.31115 | 10330 ft | 307 kts | 190° |
| 2026-05-07 17:18 | 35.89870 | -115.31633 | 10982 ft | 318 kts | 191° |
| 2026-05-07 17:19 | 35.87640 | -115.32201 | 11511 ft | 334 kts | 191° |
| 2026-05-07 17:19 | 35.85306 | -115.32793 | 11961 ft | 351 kts | 191° |
| 2026-05-07 17:19 | 35.82875 | -115.33401 | 12564 ft | 361 kts | 190° |
| 2026-05-07 17:19 | 35.80423 | -115.34007 | 13278 ft | 367 kts | 190° |
| 2026-05-07 17:20 | 35.77887 | -115.34631 | 14034 ft | 372 kts | 190° |
| 2026-05-07 17:20 | 35.75344 | -115.35253 | 14770 ft | 376 kts | 190° |
| 2026-05-07 17:20 | 35.72778 | -115.35880 | 15510 ft | 381 kts | 190° |
| 2026-05-07 17:20 | 35.70166 | -115.36518 | 16204 ft | 386 kts | 190° |
| 2026-05-07 17:21 | 35.67520 | -115.37165 | 16889 ft | 390 kts | 190° |
| 2026-05-07 17:21 | 35.64827 | -115.37819 | 17534 ft | 396 kts | 189° |
| 2026-05-07 17:21 | 35.62134 | -115.38383 | 18188 ft | 399 kts | 187° |
| 2026-05-07 17:21 | 35.59359 | -115.38677 | 18847 ft | 402 kts | 180° |
| 2026-05-07 17:22 | 35.56554 | -115.38664 | 19497 ft | 405 kts | 176° |
| 2026-05-07 17:22 | 35.53713 | -115.38486 | 20163 ft | 408 kts | 175° |
| 2026-05-07 17:22 | 35.50873 | -115.38243 | 20739 ft | 412 kts | 174° |
| 2026-05-07 17:22 | 35.47992 | -115.37987 | 21297 ft | 417 kts | 175° |
| 2026-05-07 17:23 | 35.45101 | -115.37938 | 21891 ft | 422 kts | 182° |
| 2026-05-07 17:23 | 35.42167 | -115.38454 | 22402 ft | 428 kts | 193° |
| 2026-05-07 17:23 | 35.39323 | -115.39603 | 22989 ft | 431 kts | 204° |
| 2026-05-07 17:23 | 35.36656 | -115.41222 | 23689 ft | 430 kts | 210° |
| 2026-05-07 17:24 | 35.34060 | -115.43060 | 24455 ft | 428 kts | 212° |
| 2026-05-07 17:24 | 35.31520 | -115.44920 | 25137 ft | 426 kts | 212° |
| 2026-05-07 17:24 | 35.28977 | -115.46757 | 25770 ft | 425 kts | 211° |
| 2026-05-07 17:24 | 35.26405 | -115.48567 | 26373 ft | 425 kts | 210° |
| 2026-05-07 17:25 | 35.23844 | -115.50320 | 26972 ft | 424 kts | 210° |
| 2026-05-07 17:25 | 35.21269 | -115.52040 | 27555 ft | 423 kts | 209° |
| 2026-05-07 17:25 | 35.18686 | -115.53735 | 28114 ft | 422 kts | 208° |
| 2026-05-07 17:25 | 35.16097 | -115.55417 | 28670 ft | 421 kts | 209° |
| 2026-05-07 17:26 | 35.13602 | -115.57264 | 29181 ft | 420 kts | 216° |
| 2026-05-07 17:26 | 35.11286 | -115.59446 | 29704 ft | 418 kts | 222° |
| 2026-05-07 17:26 | 35.09150 | -115.61844 | 30113 ft | 418 kts | 226° |
| 2026-05-07 17:26 | 35.07079 | -115.64389 | 30128 ft | 422 kts | 228° |
| 2026-05-07 17:27 | 35.03101 | -115.69536 | 30101 ft | 417 kts | 228° |
| 2026-05-07 17:27 | 34.99126 | -115.74710 | 30075 ft | 418 kts | 228° |
| 2026-05-07 17:28 | 34.95135 | -115.79851 | 30080 ft | 418 kts | 227° |
| 2026-05-07 17:28 | 34.91124 | -115.84978 | 30084 ft | 417 kts | 227° |
| 2026-05-07 17:29 | 34.87109 | -115.90086 | 30090 ft | 416 kts | 227° |
| 2026-05-07 17:29 | 34.83109 | -115.95162 | 30090 ft | 417 kts | 227° |
| 2026-05-07 17:30 | 34.79101 | -116.00240 | 30087 ft | 417 kts | 227° |
| 2026-05-07 17:30 | 34.75097 | -116.05314 | 30088 ft | 418 kts | 228° |
| 2026-05-07 17:31 | 34.71101 | -116.10403 | 30089 ft | 416 kts | 228° |
| 2026-05-07 17:31 | 34.67099 | -116.15505 | 30094 ft | 417 kts | 227° |
| 2026-05-07 17:32 | 34.63099 | -116.20590 | 30091 ft | 416 kts | 228° |
| 2026-05-07 17:32 | 34.59789 | -116.24791 | 30119 ft | 416 kts | 228° |
| 2026-05-07 17:33 | 34.55126 | -116.30698 | 30130 ft | 415 kts | 227° |
| 2026-05-07 17:33 | 34.51125 | -116.35757 | 30138 ft | 415 kts | 228° |
| 2026-05-07 17:34 | 34.47139 | -116.40792 | 30136 ft | 414 kts | 227° |
| 2026-05-07 17:34 | 34.43228 | -116.45856 | 30143 ft | 413 kts | 232° |
| 2026-05-07 17:35 | 34.40015 | -116.51575 | 30146 ft | 410 kts | 243° |
| 2026-05-07 17:35 | 34.37412 | -116.57693 | 30092 ft | 405 kts | 247° |
| 2026-05-07 17:36 | 34.36196 | -116.60706 | 29783 ft | 398 kts | 247° |
| 2026-05-07 17:36 | 34.34993 | -116.63705 | 29331 ft | 394 kts | 247° |
| 2026-05-07 17:36 | 34.33798 | -116.66666 | 28759 ft | 394 kts | 246° |
| 2026-05-07 17:36 | 34.32603 | -116.69625 | 28136 ft | 395 kts | 246° |
| 2026-05-07 17:37 | 34.31399 | -116.72642 | 27470 ft | 408 kts | 247° |
| 2026-05-07 17:37 | 34.30161 | -116.75760 | 26765 ft | 417 kts | 246° |
| 2026-05-07 17:37 | 34.28893 | -116.78941 | 26020 ft | 419 kts | 246° |
| 2026-05-07 17:37 | 34.27623 | -116.82114 | 25273 ft | 420 kts | 246° |
| 2026-05-07 17:38 | 34.26355 | -116.85268 | 24501 ft | 421 kts | 246° |
| 2026-05-07 17:38 | 34.25081 | -116.88432 | 23853 ft | 419 kts | 246° |
| 2026-05-07 17:38 | 34.23805 | -116.91590 | 23408 ft | 417 kts | 246° |
| 2026-05-07 17:38 | 34.22525 | -116.94758 | 22893 ft | 419 kts | 246° |
| 2026-05-07 17:39 | 34.21276 | -116.97897 | 22253 ft | 416 kts | 248° |
| 2026-05-07 17:39 | 34.20202 | -117.01092 | 21636 ft | 412 kts | 252° |
| 2026-05-07 17:39 | 34.19279 | -117.04321 | 21090 ft | 406 kts | 255° |
| 2026-05-07 17:39 | 34.18424 | -117.07558 | 20542 ft | 401 kts | 256° |
| 2026-05-07 17:40 | 34.17603 | -117.10741 | 20013 ft | 397 kts | 255° |
| 2026-05-07 17:40 | 34.16786 | -117.13899 | 19474 ft | 393 kts | 255° |
| 2026-05-07 17:40 | 34.15978 | -117.16987 | 18945 ft | 390 kts | 255° |
| 2026-05-07 17:40 | 34.15155 | -117.20081 | 18386 ft | 387 kts | 255° |
| 2026-05-07 17:41 | 34.14328 | -117.23155 | 17850 ft | 384 kts | 254° |
| 2026-05-07 17:41 | 34.13504 | -117.26189 | 17337 ft | 381 kts | 254° |
| 2026-05-07 17:41 | 34.12666 | -117.29250 | 16812 ft | 381 kts | 254° |
| 2026-05-07 17:41 | 34.11841 | -117.32248 | 16303 ft | 379 kts | 254° |
| 2026-05-07 17:42 | 34.11012 | -117.35250 | 15790 ft | 376 kts | 254° |
| 2026-05-07 17:42 | 34.10203 | -117.38199 | 15275 ft | 372 kts | 254° |
| 2026-05-07 17:42 | 34.09436 | -117.41155 | 14763 ft | 368 kts | 255° |
| 2026-05-07 17:42 | 34.08698 | -117.44122 | 14247 ft | 365 kts | 255° |
| 2026-05-07 17:43 | 34.07992 | -117.47005 | 13736 ft | 361 kts | 255° |
| 2026-05-07 17:43 | 34.07281 | -117.49893 | 13408 ft | 352 kts | 255° |
| 2026-05-07 17:43 | 34.06585 | -117.52686 | 13060 ft | 350 kts | 255° |
| 2026-05-07 17:43 | 34.05880 | -117.55472 | 12535 ft | 348 kts | 255° |
| 2026-05-07 17:44 | 34.05173 | -117.58242 | 12045 ft | 340 kts | 254° |
| 2026-05-07 17:44 | 34.04482 | -117.60935 | 11586 ft | 333 kts | 254° |
| 2026-05-07 17:44 | 34.03811 | -117.63553 | 11128 ft | 330 kts | 254° |
| 2026-05-07 17:44 | 34.03134 | -117.66190 | 10681 ft | 327 kts | 253° |
| 2026-05-07 17:45 | 34.02472 | -117.68794 | 10273 ft | 321 kts | 255° |
| 2026-05-07 17:45 | 34.02008 | -117.71380 | 10056 ft | 310 kts | 262° |
| 2026-05-07 17:45 | 34.01727 | -117.73886 | 9765 ft | 302 kts | 264° |
| 2026-05-07 17:45 | 34.01509 | -117.76350 | 9332 ft | 298 kts | 265° |
| 2026-05-07 17:46 | 34.01298 | -117.78827 | 8948 ft | 291 kts | 265° |
| 2026-05-07 17:46 | 34.01083 | -117.81245 | 8573 ft | 289 kts | 265° |
| 2026-05-07 17:46 | 34.00859 | -117.83643 | 8192 ft | 287 kts | 264° |
| 2026-05-07 17:46 | 34.00631 | -117.86021 | 7800 ft | 285 kts | 264° |
| 2026-05-07 17:47 | 34.00402 | -117.88357 | 7425 ft | 282 kts | 264° |
| 2026-05-07 17:47 | 34.00171 | -117.90705 | 7060 ft | 280 kts | 264° |
| 2026-05-07 17:47 | 33.99948 | -117.93014 | 6776 ft | 279 kts | 264° |
| 2026-05-07 17:47 | 33.99728 | -117.95317 | 6433 ft | 275 kts | 264° |
| 2026-05-07 17:48 | 33.99510 | -117.97566 | 6145 ft | 270 kts | 263° |
| 2026-05-07 17:48 | 33.99289 | -117.99798 | 5922 ft | 262 kts | 264° |
| 2026-05-07 17:48 | 33.99078 | -118.01916 | 5663 ft | 251 kts | 264° |
| 2026-05-07 17:48 | 33.98874 | -118.03966 | 5444 ft | 240 kts | 264° |
| 2026-05-07 17:49 | 33.98679 | -118.05932 | 5246 ft | 230 kts | 264° |
| 2026-05-07 17:49 | 33.98493 | -118.07797 | 5067 ft | 223 kts | 264° |
| 2026-05-07 17:49 | 33.98309 | -118.09640 | 4869 ft | 218 kts | 264° |
| 2026-05-07 17:49 | 33.98130 | -118.11432 | 4690 ft | 215 kts | 264° |
| 2026-05-07 17:50 | 33.97952 | -118.13226 | 4596 ft | 216 kts | 264° |
| 2026-05-07 17:50 | 33.97773 | -118.15023 | 4289 ft | 220 kts | 264° |
| 2026-05-07 17:50 | 33.97585 | -118.16888 | 3966 ft | 223 kts | 264° |
| 2026-05-07 17:50 | 33.97398 | -118.18742 | 3657 ft | 222 kts | 264° |
| 2026-05-07 17:51 | 33.97215 | -118.20536 | 3404 ft | 210 kts | 265° |
| 2026-05-07 17:51 | 33.97047 | -118.22251 | 3040 ft | 204 kts | 264° |
| 2026-05-07 17:51 | 33.96872 | -118.23898 | 2803 ft | 194 kts | 264° |
| 2026-05-07 17:51 | 33.96700 | -118.25468 | 2539 ft | 190 kts | 263° |
| 2026-05-07 17:52 | 33.96540 | -118.27047 | 2288 ft | 185 kts | 264° |
| 2026-05-07 17:52 | 33.96395 | -118.28574 | 2015 ft | 183 kts | 264° |
| 2026-05-07 17:52 | 33.96242 | -118.30057 | 1788 ft | 178 kts | 263° |
| 2026-05-07 17:52 | 33.96091 | -118.31502 | 1571 ft | 165 kts | 264° |
| 2026-05-07 17:53 | 33.95964 | -118.32818 | 1321 ft | 153 kts | 265° |
| 2026-05-07 17:53 | 33.95857 | -118.34032 | 1144 ft | 143 kts | 263° |
| 2026-05-07 17:53 | 33.95726 | -118.35201 | 955 ft | 139 kts | 262° |
| 2026-05-07 17:53 | 33.95607 | -118.36352 | 774 ft | 136 kts | 263° |
| 2026-05-07 17:54 | 33.95491 | -118.37472 | 595 ft | 136 kts | 262° |
| 2026-05-07 17:54 | 33.95372 | -118.38605 | 418 ft | 136 kts | 263° |
| 2026-05-07 17:54 | 33.95263 | -118.39716 | 245 ft | 134 kts | 262° |
| 2026-05-07 17:54 | 33.95147 | -118.40836 | 124 ft | 127 kts | 262° |
| 2026-05-07 17:55 | 33.95067 | -118.41595 | 123 ft | 59 kts | 263° |
| 2026-05-07 17:55 | 33.95027 | -118.41986 | 121 ft | 37 kts | 258° |
| 2026-05-07 17:55 | 33.94955 | -118.42174 | 119 ft | 21 kts | 235° |
| 2026-05-07 17:55 | 33.94900 | -118.42249 | 118 ft | 5 kts | 226° |
| 2026-05-07 17:56 | 33.94896 | -118.42254 | 118 ft | 0 kts | 225° |
| 2026-05-07 17:56 | 33.94878 | -118.42276 | 118 ft | 11 kts | 223° |
| 2026-05-07 17:56 | 33.94769 | -118.42281 | 117 ft | 18 kts | 173° |
| 2026-05-07 17:57 | 33.94685 | -118.42200 | 117 ft | 17 kts | 81° |
| 2026-05-07 17:57 | 33.94698 | -118.42102 | 118 ft | 18 kts | 83° |
| 2026-05-07 17:57 | 33.94727 | -118.41813 | 121 ft | 29 kts | 83° |
| 2026-05-07 17:57 | 33.94751 | -118.41578 | 122 ft | 28 kts | 82° |
| 2026-05-07 17:58 | 33.94786 | -118.41342 | 123 ft | 27 kts | 76° |
| 2026-05-07 17:58 | 33.94814 | -118.41109 | 124 ft | 28 kts | 82° |
| 2026-05-07 17:58 | 33.94838 | -118.40871 | 123 ft | 29 kts | 83° |
| 2026-05-07 17:58 | 33.94863 | -118.40630 | 122 ft | 29 kts | 83° |
| 2026-05-07 17:59 | 33.94888 | -118.40382 | 121 ft | 30 kts | 83° |
| 2026-05-07 17:59 | 33.94912 | -118.40145 | 119 ft | 18 kts | 88° |
| 2026-05-07 17:59 | 33.94846 | -118.40044 | 118 ft | 14 kts | 121° |
| 2026-05-07 17:59 | 33.94754 | -118.40016 | 118 ft | 14 kts | 186° |
| 2026-05-07 18:00 | 33.94699 | -118.40036 | 118 ft | 5 kts | 249° |
| 2026-05-07 18:00 | 33.94694 | -118.40070 | 119 ft | 2 kts | 264° |
| 2026-05-07 18:00 | 33.94694 | -118.40073 | 119 ft | 0 kts | 264° |